Time;durP1;ratioP1;P1;durP2;ratioP2;P2;SDS_P1;SDS_P2;PMS_P1;PMS_P2;Temp;Humidity;BMP_temperature;BMP_pressure;BME280_temperature;BME280_humidity;BME280_pressure;Samples;Min_cycle;Max_cycle;Signal;HPM_P1;HPM_P2
2022/10/28 00:02:01;;;;;;;24.48;6.97;;;;;;;14.16;100.00;100303.34;4809351;29;20068;-77
2022/10/28 00:04:26;;;;;;;23.45;7.22;;;;;;;14.19;100.00;100307.47;4794337;29;20066;-78
2022/10/28 00:06:51;;;;;;;21.10;6.35;;;;;;;14.21;100.00;100294.00;4764853;29;20554;-78
2022/10/28 00:09:17;;;;;;;21.88;7.00;;;;;;;14.20;100.00;100295.97;4764809;29;20026;-78
2022/10/28 00:11:42;;;;;;;21.55;6.95;;;;;;;14.22;100.00;100295.66;4762666;29;20035;-78
2022/10/28 00:14:08;;;;;;;23.10;7.82;;;;;;;14.23;100.00;100295.31;4780338;29;20030;-78
2022/10/28 00:16:35;;;;;;;29.38;7.38;;;;;;;14.26;100.00;100296.63;4813045;29;20037;-78
2022/10/28 00:19:02;;;;;;;21.63;7.45;;;;;;;14.27;100.00;100289.91;4782885;29;20042;-78
2022/10/28 00:21:29;;;;;;;31.20;7.72;;;;;;;14.28;100.00;100291.56;4783371;29;20108;-78
2022/10/28 00:23:55;;;;;;;30.58;6.90;;;;;;;14.28;100.00;100280.38;4797724;29;20034;-77
2022/10/28 00:26:22;;;;;;;30.10;7.30;;;;;;;14.30;100.00;100275.28;4797342;29;20046;-77
2022/10/28 00:28:55;;;;;;;22.70;7.75;;;;;;;14.31;100.00;100277.75;4779556;29;20050;-78
2022/10/28 00:31:23;;;;;;;36.35;7.97;;;;;;;14.31;100.00;100279.72;4762019;29;20062;-78
2022/10/28 00:33:48;;;;;;;27.23;7.57;;;;;;;14.33;100.00;100283.03;4797832;29;20099;-78
2022/10/28 00:36:18;;;;;;;24.42;7.13;;;;;;;14.34;100.00;100283.84;4797795;29;20072;-77
2022/10/28 00:38:44;;;;;;;28.20;7.45;;;;;;;14.34;100.00;100275.47;4824788;29;20035;-78
2022/10/28 00:41:11;;;;;;;23.20;7.15;;;;;;;14.34;100.00;100276.28;4812772;29;20045;-77
2022/10/28 00:43:50;;;;;;;29.27;6.75;;;;;;;14.36;100.00;100285.16;4812738;29;20038;-78
2022/10/28 00:46:34;;;;;;;26.23;7.25;;;;;;;14.37;100.00;100267.25;4797351;29;20046;-78
2022/10/28 00:49:03;;;;;;;28.67;7.32;;;;;;;14.37;100.00;100270.03;4784227;29;20047;-78
2022/10/28 00:51:29;;;;;;;23.48;7.65;;;;;;;14.40;100.00;100269.41;4779203;29;20054;-78
2022/10/28 00:53:55;;;;;;;31.85;6.80;;;;;;;14.41;100.00;100267.44;4779278;29;20035;-78
2022/10/28 00:56:21;;;;;;;31.58;7.78;;;;;;;14.43;100.00;100265.13;4764808;29;20692;-78
2022/10/28 00:58:47;;;;;;;29.85;7.95;;;;;;;14.43;100.00;100252.00;4779547;29;20105;-78
2022/10/28 01:01:12;;;;;;;25.98;8.13;;;;;;;14.44;100.00;100248.03;4764367;29;20030;-78
2022/10/28 01:03:38;;;;;;;33.92;8.35;;;;;;;14.47;100.00;100255.78;4779028;29;20038;-78
2022/10/28 01:06:03;;;;;;;25.45;8.07;;;;;;;14.47;100.00;100257.75;4794195;29;20042;-78
2022/10/28 01:08:29;;;;;;;30.05;8.52;;;;;;;14.49;100.00;100263.84;4779034;29;20042;-78
2022/10/28 01:11:02;;;;;;;32.28;8.18;;;;;;;14.49;100.00;100267.44;4764221;29;20035;-77
2022/10/28 01:13:39;;;;;;;29.55;6.97;;;;;;;14.49;100.00;100252.66;4809044;29;20117;-78
2022/10/28 01:16:21;;;;;;;31.80;9.05;;;;;;;14.50;100.00;100252.31;4794615;29;20043;-78
2022/10/28 01:18:52;;;;;;;24.50;7.53;;;;;;;14.51;100.00;100253.13;4779687;29;20034;-78
2022/10/28 01:21:41;;;;;;;30.25;7.60;;;;;;;14.51;100.00;100242.81;4810222;29;20489;-78
2022/10/28 01:24:17;;;;;;;28.00;7.95;;;;;;;14.52;100.00;100238.88;4778268;29;20088;-78
2022/10/28 01:27:07;;;;;;;26.13;6.90;;;;;;;14.51;100.00;100245.59;4779757;29;20038;-77
2022/10/28 01:30:03;;;;;;;23.17;7.22;;;;;;;14.53;100.00;100243.31;4808904;29;20095;-78
2022/10/28 01:32:38;;;;;;;23.52;6.82;;;;;;;14.56;100.00;100241.03;4797244;29;20069;-78
2022/10/28 01:35:09;;;;;;;27.08;8.10;;;;;;;14.56;100.00;100249.41;4793626;29;20041;-77
2022/10/28 01:37:39;;;;;;;25.08;6.97;;;;;;;14.57;100.00;100248.25;4809927;29;20043;-78
2022/10/28 01:40:09;;;;;;;21.25;7.30;;;;;;;14.55;100.00;100244.97;4763864;29;20062;-77
2022/10/28 01:42:44;;;;;;;22.70;6.95;;;;;;;14.57;100.00;100239.84;4763605;29;20033;-78
2022/10/28 01:45:36;;;;;;;23.75;7.20;;;;;;;14.56;100.00;100227.03;4778595;29;20045;-77
2022/10/28 01:48:15;;;;;;;25.40;7.38;;;;;;;14.53;100.00;100220.94;4787853;29;20534;-77
2022/10/28 01:50:49;;;;;;;24.52;7.43;;;;;;;14.52;100.00;100227.72;4796510;29;20639;-77
2022/10/28 01:53:17;;;;;;;22.75;7.75;;;;;;;14.53;100.00;100214.56;4800283;29;20029;-78
2022/10/28 01:55:45;;;;;;;24.67;7.47;;;;;;;14.51;100.00;100226.03;4804378;29;20459;-78
2022/10/28 01:58:12;;;;;;;20.25;7.57;;;;;;;14.50;100.00;100217.97;4776401;29;20442;-77
2022/10/28 02:00:37;;;;;;;23.70;7.97;;;;;;;14.49;100.00;100205.16;4796331;29;20102;-77
2022/10/28 02:03:05;;;;;;;22.52;7.63;;;;;;;14.47;100.00;100219.44;4781435;29;20041;-78
2022/10/28 02:05:45;;;;;;;22.33;8.02;;;;;;;14.46;100.00;100209.44;4795950;29;20082;-77
2022/10/28 02:08:16;;;;;;;19.20;7.82;;;;;;;14.46;100.00;100208.63;4781720;29;20487;-78
2022/10/28 02:10:46;;;;;;;23.35;7.88;;;;;;;14.45;100.00;100193.78;4811101;29;20551;-77
2022/10/28 02:13:11;;;;;;;21.58;8.82;;;;;;;14.46;100.00;100203.03;4795765;29;20031;-78
2022/10/28 02:15:49;;;;;;;30.48;7.38;;;;;;;14.42;100.00;100200.03;4781138;29;20417;-78
2022/10/28 02:18:29;;;;;;;22.92;8.57;;;;;;;14.42;100.00;100193.63;4766913;29;20041;-77
2022/10/28 02:21:16;;;;;;;27.92;8.85;;;;;;;14.40;100.00;100188.41;4761169;29;20182;-77
2022/10/28 02:23:56;;;;;;;24.25;8.18;;;;;;;14.41;100.00;100204.00;4805183;29;20046;-78
2022/10/28 02:26:37;;;;;;;26.20;9.00;;;;;;;14.40;100.00;100201.50;4767094;29;20053;-77
2022/10/28 02:29:13;;;;;;;23.65;8.20;;;;;;;14.40;100.00;100190.34;4792859;29;20045;-78
2022/10/28 02:31:50;;;;;;;21.65;8.90;;;;;;;14.37;100.00;100186.22;4805426;29;20463;-78
2022/10/28 02:34:17;;;;;;;23.52;8.93;;;;;;;14.37;100.00;100183.44;4780485;29;20099;-78
2022/10/28 02:36:44;;;;;;;21.17;8.30;;;;;;;14.35;100.00;100182.97;4765846;29;20034;-78
2022/10/28 02:39:09;;;;;;;21.75;8.93;;;;;;;14.35;100.00;100174.59;4765976;29;20034;-78
2022/10/28 02:41:50;;;;;;;25.77;8.32;;;;;;;14.35;100.00;100188.56;4780563;29;20038;-78
2022/10/28 02:44:17;;;;;;;20.73;9.38;;;;;;;14.35;100.00;100194.13;4810581;29;20038;-78
2022/10/28 02:46:44;;;;;;;23.50;8.93;;;;;;;14.33;100.00;100187.22;4765484;29;20061;-78
2022/10/28 02:49:10;;;;;;;21.55;9.52;;;;;;;14.33;100.00;100190.84;4780170;29;20038;-77
2022/10/28 02:51:38;;;;;;;19.77;8.20;;;;;;;14.31;100.00;100177.19;4795684;29;20062;-78
2022/10/28 02:54:15;;;;;;;24.20;8.35;;;;;;;14.32;100.00;100178.03;4765643;29;20042;-78
2022/10/28 02:56:46;;;;;;;22.90;8.18;;;;;;;14.32;100.00;100194.78;4780925;29;20108;-78
2022/10/28 02:59:11;;;;;;;21.17;8.68;;;;;;;14.29;100.00;100195.41;4774367;29;20061;-77
2022/10/28 03:01:38;;;;;;;17.95;8.50;;;;;;;14.29;100.00;100207.44;4825408;29;20038;-77
2022/10/28 03:04:03;;;;;;;18.25;8.10;;;;;;;14.29;100.00;100203.78;4817873;29;20034;-77
2022/10/28 03:06:29;;;;;;;22.73;8.13;;;;;;;14.27;100.00;100208.91;4780486;29;20111;-78
2022/10/28 03:08:55;;;;;;;22.67;9.00;;;;;;;14.27;100.00;100211.69;4804080;29;20038;-78
2022/10/28 03:11:20;;;;;;;21.92;8.95;;;;;;;14.26;100.00;100213.69;4762050;29;20035;-77
2022/10/28 03:13:45;;;;;;;21.17;9.10;;;;;;;14.26;100.00;100218.41;4795299;29;20438;-78
2022/10/28 03:16:11;;;;;;;19.48;8.98;;;;;;;14.23;100.00;100219.88;4764746;29;20039;-78
2022/10/28 03:18:36;;;;;;;22.70;8.82;;;;;;;14.22;100.00;100212.66;4780155;29;20034;-77
2022/10/28 03:21:02;;;;;;;16.60;8.35;;;;;;;14.22;100.00;100212.66;4795281;29;20034;-77
2022/10/28 03:23:27;;;;;;;24.15;8.70;;;;;;;14.21;100.00;100218.59;4765212;29;20145;-78
2022/10/28 03:25:53;;;;;;;25.63;8.63;;;;;;;14.23;100.00;100221.88;4798197;29;20036;-78
2022/10/28 03:28:18;;;;;;;26.13;9.50;;;;;;;14.21;100.00;100225.00;4801507;29;20068;-78
2022/10/28 03:30:44;;;;;;;22.98;8.85;;;;;;;14.20;100.00;100225.31;4794757;29;20045;-77
2022/10/28 03:33:09;;;;;;;22.73;8.10;;;;;;;14.20;100.00;100236.47;4795099;29;20096;-77
2022/10/28 03:35:35;;;;;;;22.35;8.80;;;;;;;14.18;100.00;100239.63;4765323;29;20030;-78
2022/10/28 03:38:00;;;;;;;19.33;8.50;;;;;;;14.17;100.00;100237.97;4794610;29;20037;-77
2022/10/28 03:40:26;;;;;;;20.88;8.20;;;;;;;14.19;100.00;100240.44;4794506;29;20038;-77
2022/10/28 03:42:51;;;;;;;20.88;8.88;;;;;;;14.18;100.00;100248.00;4765022;29;20064;-78
2022/10/28 03:45:17;;;;;;;29.08;9.13;;;;;;;14.19;100.00;100248.81;4765995;29;20042;-78
2022/10/28 03:47:42;;;;;;;21.92;8.93;;;;;;;14.16;100.00;100255.88;4799163;29;20062;-77
2022/10/28 03:50:08;;;;;;;27.35;9.20;;;;;;;14.17;100.00;100265.06;4780544;29;20042;-78
2022/10/28 03:52:33;;;;;;;19.33;8.27;;;;;;;14.17;100.00;100279.03;4778655;29;20036;-78
2022/10/28 03:54:59;;;;;;;17.02;7.63;;;;;;;14.18;100.00;100275.94;4810522;29;20039;-78
2022/10/28 03:57:24;;;;;;;18.02;7.70;;;;;;;14.18;100.00;100280.66;4780629;29;20035;-78
2022/10/28 03:59:50;;;;;;;16.58;7.65;;;;;;;14.16;100.00;100275.41;4750812;29;20027;-77
2022/10/28 04:02:15;;;;;;;20.00;8.57;;;;;;;14.17;100.00;100279.84;4780036;29;20042;-78
2022/10/28 04:04:41;;;;;;;21.65;8.57;;;;;;;14.17;100.00;100276.25;4794876;29;20034;-78
2022/10/28 04:07:06;;;;;;;15.63;6.80;;;;;;;14.16;100.00;100278.22;4750652;29;20034;-78
2022/10/28 04:09:32;;;;;;;17.13;7.50;;;;;;;14.16;100.00;100278.22;4794968;29;20039;-78
2022/10/28 04:11:57;;;;;;;16.13;8.05;;;;;;;14.16;100.00;100280.19;4779680;29;20039;-78
2022/10/28 04:14:22;;;;;;;16.77;7.95;;;;;;;14.16;100.00;100277.41;4806827;29;20027;-78
2022/10/28 04:16:48;;;;;;;13.80;7.47;;;;;;;14.17;100.00;100263.09;4780038;29;20034;-78
2022/10/28 04:19:13;;;;;;;18.52;8.00;;;;;;;14.16;100.00;100274.59;4762046;30;20031;-78
2022/10/28 04:21:39;;;;;;;17.63;8.10;;;;;;;14.15;100.00;100272.94;4780158;29;20034;-78
2022/10/28 04:24:05;;;;;;;17.98;7.97;;;;;;;14.14;100.00;100302.03;4794874;29;20484;-78
2022/10/28 04:26:30;;;;;;;18.42;7.90;;;;;;;14.12;100.00;100293.97;4779851;29;20117;-78
2022/10/28 04:28:56;;;;;;;13.20;6.97;;;;;;;14.09;100.00;100277.84;4779834;29;20050;-78
2022/10/28 04:31:22;;;;;;;15.38;7.32;;;;;;;14.09;100.00;100283.44;4779430;29;20035;-78
2022/10/28 04:33:47;;;;;;;20.33;7.50;;;;;;;14.09;100.00;100283.44;4764883;29;20066;-78
2022/10/28 04:36:13;;;;;;;15.23;6.38;;;;;;;14.08;100.00;100296.56;4779555;29;20040;-78
2022/10/28 04:38:38;;;;;;;10.98;6.93;;;;;;;14.06;100.00;100298.88;4779769;29;20536;-78
2022/10/28 04:41:04;;;;;;;15.15;7.43;;;;;;;14.06;100.00;100298.03;4779378;29;20030;-78
2022/10/28 04:43:29;;;;;;;15.45;7.50;;;;;;;14.05;100.00;100300.03;4779435;29;20046;-77
2022/10/28 04:45:55;;;;;;;15.27;7.00;;;;;;;14.05;100.00;100308.41;4776278;30;20100;-77
2022/10/28 04:48:20;;;;;;;15.23;6.45;;;;;;;14.04;100.00;100311.50;4780066;29;20058;-78
2022/10/28 04:50:46;;;;;;;15.05;7.13;;;;;;;14.03;100.00;100304.28;4764748;29;20041;-78
2022/10/28 04:53:12;;;;;;;14.68;7.10;;;;;;;14.02;100.00;100313.81;4749878;29;20091;-78
2022/10/28 04:55:37;;;;;;;18.63;8.02;;;;;;;13.99;100.00;100315.28;4764933;29;20050;-78
2022/10/28 04:58:03;;;;;;;19.30;7.88;;;;;;;13.99;100.00;100312.47;4778718;29;20045;-78
2022/10/28 05:00:28;;;;;;;13.05;6.68;;;;;;;13.97;100.00;100337.09;4749815;29;20030;-77
2022/10/28 05:02:54;;;;;;;18.52;7.85;;;;;;;13.96;100.00;100345.81;4749752;29;20031;-78
2022/10/28 05:05:19;;;;;;;16.08;7.03;;;;;;;13.97;100.00;100356.63;4764369;29;20076;-78
2022/10/28 05:07:45;;;;;;;14.98;6.43;;;;;;;13.98;100.00;100358.28;4764008;29;20034;-78
2022/10/28 05:10:11;;;;;;;13.63;7.15;;;;;;;13.97;100.00;100355.81;4779386;29;20042;-77
2022/10/28 05:12:40;;;;;;;13.45;7.00;;;;;;;13.97;100.00;100353.03;4764048;29;20038;-78
2022/10/28 05:15:06;;;;;;;21.35;7.35;;;;;;;13.95;100.00;100347.75;4764566;29;20039;-77
2022/10/28 05:17:31;;;;;;;15.70;7.03;;;;;;;13.90;100.00;100349.88;4763954;29;20400;-78
2022/10/28 05:19:57;;;;;;;15.35;7.35;;;;;;;13.92;100.00;100359.56;4778968;29;20030;-78
2022/10/28 05:22:22;;;;;;;15.32;6.80;;;;;;;13.91;100.00;100352.34;4764197;29;20035;-78
2022/10/28 05:24:48;;;;;;;15.82;7.47;;;;;;;13.88;100.00;100361.38;4764105;29;20039;-78
2022/10/28 05:27:14;;;;;;;14.98;7.00;;;;;;;13.86;100.00;100358.88;4749540;29;20042;-78
2022/10/28 05:29:40;;;;;;;16.10;6.50;;;;;;;13.84;100.00;100363.13;4778885;29;20047;-78
2022/10/28 05:32:05;;;;;;;16.58;7.18;;;;;;;13.77;100.00;100340.44;4779608;29;20030;-77
2022/10/28 05:34:31;;;;;;;13.65;6.28;;;;;;;13.77;100.00;100337.66;4778847;29;20074;-78
2022/10/28 05:36:56;;;;;;;15.48;7.18;;;;;;;13.76;100.00;100359.16;4779003;29;20400;-78
2022/10/28 05:39:22;;;;;;;15.88;6.90;;;;;;;13.73;100.00;100354.19;4764019;29;20034;-77
2022/10/28 05:41:47;;;;;;;10.38;6.82;;;;;;;13.72;100.00;100354.53;4778806;29;20050;-78
2022/10/28 05:44:12;;;;;;;19.17;7.07;;;;;;;13.69;100.00;100355.19;4749095;29;20054;-78
2022/10/28 05:46:38;;;;;;;15.95;7.60;;;;;;;13.66;100.00;100369.78;4778472;29;20050;-78
2022/10/28 05:49:03;;;;;;;16.55;7.60;;;;;;;13.64;100.00;100370.88;4792324;29;20086;-78
2022/10/28 05:51:29;;;;;;;20.15;7.55;;;;;;;13.63;100.00;100369.25;4778692;29;20047;-78
2022/10/28 05:53:54;;;;;;;19.90;7.88;;;;;;;13.61;100.00;100373.50;4763431;29;20039;-78
2022/10/28 05:56:20;;;;;;;15.13;7.03;;;;;;;13.58;100.00;100383.34;4763507;29;20031;-78
2022/10/28 05:58:46;;;;;;;15.95;7.63;;;;;;;13.60;100.00;100386.63;4778449;29;20039;-77
2022/10/28 06:01:12;;;;;;;18.88;7.78;;;;;;;13.59;100.00;100400.88;4793039;29;20035;-78
2022/10/28 06:03:37;;;;;;;20.10;8.25;;;;;;;13.60;100.00;100408.13;4777752;29;20031;-77
2022/10/28 06:06:03;;;;;;;20.45;7.47;;;;;;;13.59;100.00;100415.66;4778131;29;20545;-78
2022/10/28 06:08:29;;;;;;;15.13;7.30;;;;;;;13.60;100.00;100403.38;4777841;29;20039;-78
2022/10/28 06:10:54;;;;;;;16.60;7.90;;;;;;;13.59;100.00;100398.91;4791885;29;20449;-77
2022/10/28 06:13:20;;;;;;;23.55;8.07;;;;;;;13.62;100.00;100401.09;4792678;29;20035;-77
2022/10/28 06:15:52;;;;;;;15.93;7.72;;;;;;;13.63;100.00;100407.50;4772112;29;20225;-78
2022/10/28 06:18:18;;;;;;;20.05;7.65;;;;;;;13.63;100.00;100402.75;4777229;29;20043;-77
2022/10/28 06:20:43;;;;;;;19.85;7.97;;;;;;;13.64;100.00;100409.13;4792240;29;20118;-77
2022/10/28 06:23:09;;;;;;;15.65;7.15;;;;;;;13.67;100.00;100407.69;4781727;30;20116;-77
2022/10/28 06:25:34;;;;;;;17.70;8.10;;;;;;;13.67;100.00;100407.69;4785552;29;20027;-78
2022/10/28 06:28:03;;;;;;;15.85;7.80;;;;;;;13.68;100.00;100412.13;4762927;29;20042;-78
2022/10/28 06:30:28;;;;;;;16.73;7.63;;;;;;;13.66;100.00;100411.63;4763382;29;20051;-78
2022/10/28 06:32:57;;;;;;;17.15;7.55;;;;;;;13.69;100.00;100416.56;4748255;29;20408;-78
2022/10/28 06:35:22;;;;;;;18.45;7.53;;;;;;;13.71;100.00;100414.28;4792720;29;20042;-77
2022/10/28 06:37:52;;;;;;;15.15;7.30;;;;;;;13.72;100.00;100435.47;4777545;29;20125;-78
2022/10/28 06:40:18;;;;;;;22.83;8.00;;;;;;;13.72;100.00;100439.06;4792299;29;20027;-77
2022/10/28 06:42:43;;;;;;;14.90;7.15;;;;;;;13.74;100.00;100444.34;4777493;29;20101;-78
2022/10/28 06:45:09;;;;;;;19.73;8.05;;;;;;;13.74;100.00;100441.56;4774645;30;20071;-77
2022/10/28 06:47:34;;;;;;;16.65;7.95;;;;;;;13.75;100.00;100435.66;4782895;29;20054;-78
2022/10/28 06:50:00;;;;;;;17.75;7.22;;;;;;;13.75;100.00;100455.19;4828061;29;20034;-77
2022/10/28 06:52:25;;;;;;;17.38;7.82;;;;;;;13.75;100.00;100444.03;4813373;29;20041;-77
2022/10/28 06:54:51;;;;;;;13.90;6.85;;;;;;;13.77;100.00;100449.31;4813230;29;20036;-78
2022/10/28 06:57:16;;;;;;;17.65;7.22;;;;;;;13.75;100.00;100438.44;4783720;29;20453;-77
2022/10/28 06:59:42;;;;;;;21.13;7.07;;;;;;;13.76;100.00;100430.88;4812621;29;20034;-78
2022/10/28 07:02:10;;;;;;;19.20;7.47;;;;;;;13.77;100.00;100463.25;4796977;29;20041;-77
2022/10/28 07:04:36;;;;;;;16.48;7.03;;;;;;;13.74;100.00;100458.31;4798203;29;20076;-77
2022/10/28 07:07:02;;;;;;;19.15;7.15;;;;;;;13.76;100.00;100467.16;4798418;29;20046;-77
2022/10/28 07:09:27;;;;;;;19.88;7.47;;;;;;;13.74;100.00;100472.28;4828372;29;20037;-77
2022/10/28 07:11:52;;;;;;;13.93;7.03;;;;;;;13.75;100.00;100468.31;4813124;29;20045;-77
2022/10/28 07:14:18;;;;;;;16.67;7.28;;;;;;;13.73;100.00;100470.59;4783238;29;20026;-78
2022/10/28 07:16:43;;;;;;;19.95;7.60;;;;;;;13.74;100.00;100487.03;4828119;29;20538;-77
2022/10/28 07:19:09;;;;;;;15.27;7.00;;;;;;;13.72;100.00;100494.06;4813090;29;20045;-77
2022/10/28 07:21:35;;;;;;;19.50;7.72;;;;;;;13.73;100.00;100495.72;4813212;29;20100;-77
2022/10/28 07:24:00;;;;;;;19.15;6.97;;;;;;;13.73;100.00;100506.88;4828445;29;20042;-78
2022/10/28 07:26:26;;;;;;;13.48;7.07;;;;;;;13.72;100.00;100522.00;4828208;29;20041;-77
2022/10/28 07:28:51;;;;;;;17.70;8.55;;;;;;;13.72;100.00;100528.38;4798027;29;20487;-69
2022/10/28 07:31:17;;;;;;;16.95;7.10;;;;;;;13.75;100.00;100538.09;4827974;29;20045;-78
2022/10/28 07:33:42;;;;;;;15.57;7.70;;;;;;;13.76;100.00;100539.75;4797867;29;20546;-78
2022/10/28 07:36:08;;;;;;;14.95;7.03;;;;;;;13.76;100.00;100531.38;4813240;29;20094;-77
2022/10/28 07:38:34;;;;;;;19.70;7.90;;;;;;;13.78;100.00;100529.91;4783035;29;20130;-77
2022/10/28 07:41:06;;;;;;;19.55;6.70;;;;;;;13.79;100.00;100527.94;4812960;29;20044;-77
2022/10/28 07:43:35;;;;;;;18.33;6.60;;;;;;;13.82;100.00;100530.13;4828093;29;20038;-78
2022/10/28 07:46:01;;;;;;;18.67;7.40;;;;;;;13.86;100.00;100533.94;4809779;29;20484;-77
2022/10/28 07:48:26;;;;;;;19.73;7.88;;;;;;;13.89;100.00;100529.69;4796741;29;20053;-78
2022/10/28 07:50:52;;;;;;;11.13;6.00;;;;;;;13.91;100.00;100525.44;4828045;29;20041;-78
2022/10/28 07:53:17;;;;;;;17.67;6.57;;;;;;;13.95;100.00;100537.59;4794749;29;20026;-78
2022/10/28 07:55:43;;;;;;;14.68;7.47;;;;;;;13.99;100.00;100541.44;4825076;29;20030;-78
2022/10/28 07:58:08;;;;;;;15.80;7.47;;;;;;;14.03;100.00;100545.22;4825337;29;20037;-78
2022/10/28 08:00:34;;;;;;;14.40;6.55;;;;;;;14.08;100.00;100563.84;4812478;29;20033;-78
2022/10/28 08:03:01;;;;;;;14.68;6.07;;;;;;;14.14;100.00;100556.16;4812818;29;20026;-78
2022/10/28 08:05:26;;;;;;;12.35;6.75;;;;;;;14.18;100.00;100562.75;4782576;29;20041;-77
2022/10/28 08:07:52;;;;;;;16.92;6.35;;;;;;;14.22;100.00;100555.41;4797586;29;20030;-78
2022/10/28 08:10:17;;;;;;;14.73;6.00;;;;;;;14.26;100.00;100562.84;4779666;29;20038;-77
2022/10/28 08:12:45;;;;;;;14.52;6.07;;;;;;;14.31;100.00;100559.06;4809487;29;20399;-78
2022/10/28 08:15:11;;;;;;;15.30;6.53;;;;;;;14.37;100.00;100563.38;4794822;29;20034;-78
2022/10/28 08:17:37;;;;;;;12.35;5.97;;;;;;;14.41;100.00;100561.63;4812792;29;20034;-78
2022/10/28 08:20:03;;;;;;;19.83;6.88;;;;;;;14.48;100.00;100575.94;4797406;29;20033;-78
2022/10/28 08:22:29;;;;;;;15.82;6.38;;;;;;;14.54;100.00;100582.25;4812636;29;20094;-78
2022/10/28 08:24:54;;;;;;;11.55;5.93;;;;;;;14.59;100.00;100595.28;4797817;29;20034;-78
2022/10/28 08:27:20;;;;;;;16.98;5.78;;;;;;;14.64;100.00;100587.59;4797667;29;20033;-77
2022/10/28 08:29:45;;;;;;;13.32;6.10;;;;;;;14.70;100.00;100591.09;4812424;29;20046;-79
2022/10/28 08:32:10;;;;;;;12.25;5.78;;;;;;;14.74;100.00;100586.50;4782847;29;20045;-79
2022/10/28 08:34:36;;;;;;;15.13;6.07;;;;;;;14.79;100.00;100611.50;4800677;29;20030;-78
2022/10/28 08:37:01;;;;;;;13.27;5.85;;;;;;;14.85;100.00;100612.22;4815944;29;20037;-78
2022/10/28 08:39:27;;;;;;;8.80;4.68;;;;;;;14.89;100.00;100616.84;4820984;29;20480;-78
2022/10/28 08:42:21;;;;;;;13.07;5.60;;;;;;;14.95;100.00;100612.75;4814926;29;20034;-78
2022/10/28 08:44:57;;;;;;;15.82;5.70;;;;;;;15.01;100.00;100637.81;4803148;29;20040;-78
2022/10/28 08:48:10;;;;;;;13.82;5.60;;;;;;;15.09;100.00;100639.81;4800133;29;20082;-78
2022/10/28 08:51:11;;;;;;;16.85;5.43;;;;;;;15.14;100.00;100656.47;4747441;30;20107;-78
2022/10/28 08:53:43;;;;;;;12.68;5.43;;;;;;;15.18;100.00;100663.06;4762879;30;20075;-78
2022/10/28 08:56:30;;;;;;;12.75;4.82;;;;;;;15.27;100.00;100665.94;4775352;30;20054;-78
2022/10/28 08:58:59;;;;;;;16.38;5.43;;;;;;;15.34;100.00;100678.28;4775106;30;20043;-78
2022/10/28 09:01:59;;;;;;;11.95;5.03;;;;;;;15.40;100.00;100684.56;4759956;30;20055;-78
2022/10/28 09:04:38;;;;;;;14.27;4.55;;;;;;;15.47;100.00;100684.94;4760624;29;20051;-78
2022/10/28 09:07:03;;;;;;;11.20;4.20;;;;;;;15.54;100.00;100695.66;4756891;30;20036;-78
2022/10/28 09:09:29;;;;;;;11.95;4.45;;;;;;;15.62;100.00;100697.66;4773151;30;20047;-78
2022/10/28 09:12:03;;;;;;;14.00;4.93;;;;;;;15.71;100.00;100701.38;4744902;30;20039;-78
2022/10/28 09:14:43;;;;;;;10.68;3.92;;;;;;;15.78;100.00;100698.09;4774646;30;20043;-78
2022/10/28 09:17:19;;;;;;;14.52;4.28;;;;;;;15.90;100.00;100700.25;4773218;30;20039;-78
2022/10/28 09:19:47;;;;;;;12.13;3.60;;;;;;;16.00;100.00;100712.00;4756643;30;20109;-78
2022/10/28 09:22:16;;;;;;;13.45;3.70;;;;;;;16.09;100.00;100714.81;4819075;29;20049;-78
2022/10/28 09:24:46;;;;;;;13.93;3.58;;;;;;;16.22;100.00;100725.06;4830167;29;20041;-78
2022/10/28 09:27:20;;;;;;;10.35;3.08;;;;;;;16.34;100.00;100723.59;4814822;29;20033;-77
2022/10/28 09:30:11;;;;;;;11.65;3.42;;;;;;;16.46;100.00;100718.16;4846073;29;20053;-76
2022/10/28 09:32:45;;;;;;;13.13;3.80;;;;;;;16.59;100.00;100727.56;4809196;29;20046;-77
2022/10/28 09:35:12;;;;;;;11.95;2.80;;;;;;;16.74;100.00;100736.31;4814753;29;20402;-77
2022/10/28 09:37:41;;;;;;;9.73;2.85;;;;;;;16.87;100.00;100733.69;4814605;29;20530;-77
2022/10/28 09:40:26;;;;;;;11.52;3.10;;;;;;;17.00;100.00;100715.88;4814339;29;20570;-77
2022/10/28 09:43:08;;;;;;;16.30;3.40;;;;;;;17.13;100.00;100728.03;4814341;29;20040;-76
2022/10/28 09:45:36;;;;;;;12.63;2.70;;;;;;;17.27;100.00;100730.66;4815549;29;20056;-79
2022/10/28 09:48:16;;;;;;;11.13;3.00;;;;;;;17.38;100.00;100737.56;4798527;29;20119;-78
2022/10/28 09:50:42;;;;;;;13.90;2.50;;;;;;;17.49;100.00;100746.44;4799913;29;20125;-78
2022/10/28 09:53:28;;;;;;;14.68;2.75;;;;;;;17.63;100.00;100739.47;4799812;29;20356;-78
2022/10/28 09:55:55;;;;;;;13.68;2.00;;;;;;;17.75;100.00;100741.56;4814326;29;20026;-79
2022/10/28 09:58:21;;;;;;;10.05;2.45;;;;;;;17.85;100.00;100748.81;4799155;29;20038;-78
2022/10/28 10:00:46;;;;;;;12.48;3.28;;;;;;;17.94;100.00;100766.47;4784130;29;20029;-78
2022/10/28 10:03:12;;;;;;;10.57;2.15;;;;;;;18.04;100.00;100771.69;4800503;29;20030;-78
2022/10/28 10:05:40;;;;;;;15.40;2.40;;;;;;;18.13;100.00;100776.44;4829347;29;20041;-78
2022/10/28 10:08:05;;;;;;;9.75;2.10;;;;;;;18.20;100.00;100777.56;4814120;29;20045;-78
2022/10/28 10:10:43;;;;;;;14.50;2.38;;;;;;;18.30;100.00;100777.19;4829162;29;20038;-76
2022/10/28 10:13:09;;;;;;;11.30;2.15;;;;;;;18.38;100.00;100775.47;4844325;29;20038;-76
2022/10/28 10:15:41;;;;;;;11.95;2.10;;;;;;;18.48;100.00;100780.72;4828942;29;20399;-80
2022/10/28 10:18:12;;;;;;;10.48;1.85;;;;;;;18.57;100.00;100785.47;4813911;29;20038;-79
2022/10/28 10:20:54;;;;;;;11.13;2.20;;;;;;;18.65;100.00;100790.19;4814069;29;20167;-79
2022/10/28 10:23:40;;;;;;;10.07;1.92;;;;;;;18.72;100.00;100794.13;4811036;29;20041;-76
2022/10/28 10:26:11;;;;;;;11.05;1.95;;;;;;;18.79;100.00;100787.16;4843941;29;20078;-76
2022/10/28 10:28:47;;;;;;;10.40;1.88;;;;;;;18.84;100.00;100782.13;4828711;29;20125;-75
2022/10/28 10:31:20;;;;;;;11.60;2.08;;;;;;;18.93;100.00;100780.06;4798244;29;20066;-75
2022/10/28 10:33:50;;;;;;;9.52;1.85;;;;;;;18.98;100.00;100776.22;4802523;29;20034;-76
2022/10/28 10:36:16;;;;;;;10.52;2.00;;;;;;;19.03;100.00;100784.47;4816857;29;20122;-76
2022/10/28 10:38:50;;;;;;;12.70;2.05;;;;;;;19.08;100.00;100800.31;4828479;29;20030;-75
2022/10/28 10:41:35;;;;;;;8.73;2.05;;;;;;;19.12;100.00;100801.28;4798208;29;20034;-76
2022/10/28 10:44:00;;;;;;;11.48;1.83;;;;;;;19.15;100.00;100820.28;4798397;29;20046;-76
2022/10/28 10:46:29;;;;;;;9.57;1.77;;;;;;;19.18;100.00;100820.41;4798025;29;20041;-76
2022/10/28 10:49:14;;;;;;;8.40;1.48;;;;;;;19.21;100.00;100821.72;4828548;29;20142;-76
2022/10/28 10:51:52;;;;;;;11.07;1.88;;;;;;;19.22;100.00;100817.72;4813750;29;20034;-75
2022/10/28 10:54:18;;;;;;;10.05;1.60;;;;;;;19.25;100.00;100831.13;4797765;29;20117;-75
2022/10/28 10:56:43;;;;;;;9.02;1.30;;;;;;;19.28;100.00;100829.59;4823580;29;20506;-76
2022/10/28 10:59:30;;;;;;;8.10;1.30;;;;;;;19.30;100.00;100825.28;4813355;29;20071;-76
2022/10/28 11:01:56;;;;;;;7.07;1.45;;;;;;;19.32;100.00;100825.75;4813442;29;20044;-75
2022/10/28 11:04:22;;;;;;;7.97;1.38;;;;;;;19.37;100.00;100830.34;4782227;29;20031;-76
2022/10/28 11:06:49;;;;;;;11.50;1.58;;;;;;;19.40;100.00;100832.47;4803472;29;20038;-76
2022/10/28 11:09:37;;;;;;;12.40;1.58;;;;;;;19.45;100.00;100842.72;4782252;29;20062;-76
2022/10/28 11:12:34;;;;;;;7.82;1.20;;;;;;;19.51;100.00;100830.88;4828225;29;20034;-76
2022/10/28 11:15:15;;;;;;;9.65;1.50;;;;;;;19.55;100.00;100831.81;4828255;29;20037;-76
2022/10/28 11:17:40;;;;;;;11.75;1.70;;;;;;;19.61;100.00;100840.88;4829246;29;20129;-76
2022/10/28 11:20:23;;;;;;;6.25;1.52;;;;;;;19.66;100.00;100845.50;4797831;29;20029;-76